sensor_id;sensor_type;location;lat;lon;timestamp;P1;durP1;ratioP1;P2;durP2;ratioP2
25069;SDS011;13064;48.162;11.536;2023-02-01T00:00:36;4.82;;;2.55;;
25069;SDS011;13064;48.162;11.536;2023-02-01T00:03:03;4.82;;;2.72;;
25069;SDS011;13064;48.162;11.536;2023-02-01T00:05:32;4.22;;;2.63;;
25069;SDS011;13064;48.162;11.536;2023-02-01T00:07:59;4.18;;;2.85;;
25069;SDS011;13064;48.162;11.536;2023-02-01T00:10:27;5.93;;;3.08;;
25069;SDS011;13064;48.162;11.536;2023-02-01T00:12:54;4.32;;;2.72;;
25069;SDS011;13064;48.162;11.536;2023-02-01T00:15:22;3.70;;;2.50;;
25069;SDS011;13064;48.162;11.536;2023-02-01T00:17:53;5.10;;;2.95;;
25069;SDS011;13064;48.162;11.536;2023-02-01T00:20:21;5.38;;;2.53;;
25069;SDS011;13064;48.162;11.536;2023-02-01T00:22:49;5.72;;;2.72;;
25069;SDS011;13064;48.162;11.536;2023-02-01T00:25:16;5.18;;;3.17;;
25069;SDS011;13064;48.162;11.536;2023-02-01T00:27:48;4.43;;;2.80;;
25069;SDS011;13064;48.162;11.536;2023-02-01T00:30:16;3.53;;;2.65;;
25069;SDS011;13064;48.162;11.536;2023-02-01T00:32:44;4.60;;;2.03;;
25069;SDS011;13064;48.162;11.536;2023-02-01T00:35:12;6.32;;;3.10;;
25069;SDS011;13064;48.162;11.536;2023-02-01T00:37:40;4.63;;;2.40;;
25069;SDS011;13064;48.162;11.536;2023-02-01T00:40:08;4.72;;;2.53;;
25069;SDS011;13064;48.162;11.536;2023-02-01T00:42:36;5.18;;;2.60;;
25069;SDS011;13064;48.162;11.536;2023-02-01T00:45:03;4.18;;;2.95;;
25069;SDS011;13064;48.162;11.536;2023-02-01T00:47:31;6.38;;;2.95;;
25069;SDS011;13064;48.162;11.536;2023-02-01T00:49:59;4.97;;;3.10;;
25069;SDS011;13064;48.162;11.536;2023-02-01T00:52:26;5.32;;;3.10;;
25069;SDS011;13064;48.162;11.536;2023-02-01T00:54:54;4.60;;;3.25;;
25069;SDS011;13064;48.162;11.536;2023-02-01T00:57:21;6.85;;;3.40;;
25069;SDS011;13064;48.162;11.536;2023-02-01T00:59:49;7.07;;;3.10;;
25069;SDS011;13064;48.162;11.536;2023-02-01T01:02:17;6.25;;;3.42;;
25069;SDS011;13064;48.162;11.536;2023-02-01T01:04:44;6.60;;;3.63;;
25069;SDS011;13064;48.162;11.536;2023-02-01T01:07:12;6.43;;;3.65;;
25069;SDS011;13064;48.162;11.536;2023-02-01T01:09:39;4.20;;;3.50;;
25069;SDS011;13064;48.162;11.536;2023-02-01T01:12:07;6.05;;;3.67;;
25069;SDS011;13064;48.162;11.536;2023-02-01T01:14:34;6.57;;;3.78;;
25069;SDS011;13064;48.162;11.536;2023-02-01T01:17:02;6.95;;;3.67;;
25069;SDS011;13064;48.162;11.536;2023-02-01T01:19:30;8.32;;;3.83;;
25069;SDS011;13064;48.162;11.536;2023-02-01T01:21:57;6.95;;;4.20;;
25069;SDS011;13064;48.162;11.536;2023-02-01T01:24:25;5.25;;;3.20;;
25069;SDS011;13064;48.162;11.536;2023-02-01T01:26:52;7.10;;;3.72;;
25069;SDS011;13064;48.162;11.536;2023-02-01T01:29:20;6.38;;;2.95;;
25069;SDS011;13064;48.162;11.536;2023-02-01T01:31:47;5.68;;;3.85;;
25069;SDS011;13064;48.162;11.536;2023-02-01T01:34:15;6.20;;;3.83;;
25069;SDS011;13064;48.162;11.536;2023-02-01T01:36:43;9.02;;;3.90;;
25069;SDS011;13064;48.162;11.536;2023-02-01T01:39:11;6.05;;;4.10;;
25069;SDS011;13064;48.162;11.536;2023-02-01T01:41:38;6.38;;;3.88;;
25069;SDS011;13064;48.162;11.536;2023-02-01T01:47:01;7.57;;;4.40;;
25069;SDS011;13064;48.162;11.536;2023-02-01T01:49:29;6.95;;;4.60;;
25069;SDS011;13064;48.162;11.536;2023-02-01T01:51:58;9.60;;;5.13;;
25069;SDS011;13064;48.162;11.536;2023-02-01T01:54:33;6.60;;;4.30;;
25069;SDS011;13064;48.162;11.536;2023-02-01T01:57:03;8.38;;;4.43;;
25069;SDS011;13064;48.162;11.536;2023-02-01T01:59:34;6.45;;;4.20;;
25069;SDS011;13064;48.162;11.536;2023-02-01T02:02:03;8.75;;;5.00;;
25069;SDS011;13064;48.162;11.536;2023-02-01T02:04:32;8.05;;;4.72;;
25069;SDS011;13064;48.162;11.536;2023-02-01T02:07:10;7.00;;;4.75;;
25069;SDS011;13064;48.162;11.536;2023-02-01T02:09:39;7.47;;;5.20;;
25069;SDS011;13064;48.162;11.536;2023-02-01T02:12:16;10.32;;;5.30;;
25069;SDS011;13064;48.162;11.536;2023-02-01T02:14:44;6.88;;;5.07;;
25069;SDS011;13064;48.162;11.536;2023-02-01T02:17:30;8.25;;;5.38;;
25069;SDS011;13064;48.162;11.536;2023-02-01T02:27:51;8.25;;;4.95;;
25069;SDS011;13064;48.162;11.536;2023-02-01T02:30:40;7.25;;;4.93;;
25069;SDS011;13064;48.162;11.536;2023-02-01T02:38:13;6.43;;;4.75;;
25069;SDS011;13064;48.162;11.536;2023-02-01T02:44:14;9.90;;;4.95;;
25069;SDS011;13064;48.162;11.536;2023-02-01T02:47:03;6.28;;;4.75;;
25069;SDS011;13064;48.162;11.536;2023-02-01T02:49:52;7.18;;;4.88;;
25069;SDS011;13064;48.162;11.536;2023-02-01T02:52:42;6.93;;;4.90;;
25069;SDS011;13064;48.162;11.536;2023-02-01T02:55:30;8.68;;;5.05;;
25069;SDS011;13064;48.162;11.536;2023-02-01T02:57:59;8.45;;;5.20;;
25069;SDS011;13064;48.162;11.536;2023-02-01T03:00:46;6.88;;;4.72;;
25069;SDS011;13064;48.162;11.536;2023-02-01T03:03:36;6.90;;;4.40;;
25069;SDS011;13064;48.162;11.536;2023-02-01T03:06:23;7.22;;;4.65;;
25069;SDS011;13064;48.162;11.536;2023-02-01T03:08:51;6.93;;;4.22;;
25069;SDS011;13064;48.162;11.536;2023-02-01T03:11:23;7.13;;;4.85;;
25069;SDS011;13064;48.162;11.536;2023-02-01T03:14:11;6.68;;;4.40;;
25069;SDS011;13064;48.162;11.536;2023-02-01T03:16:41;5.50;;;3.90;;
25069;SDS011;13064;48.162;11.536;2023-02-01T03:19:19;8.27;;;4.32;;
25069;SDS011;13064;48.162;11.536;2023-02-01T03:21:58;5.25;;;3.58;;
25069;SDS011;13064;48.162;11.536;2023-02-01T03:24:49;8.25;;;4.25;;
25069;SDS011;13064;48.162;11.536;2023-02-01T03:27:22;7.28;;;4.30;;
25069;SDS011;13064;48.162;11.536;2023-02-01T03:30:14;6.70;;;3.80;;
25069;SDS011;13064;48.162;11.536;2023-02-01T03:35:33;6.18;;;4.13;;
25069;SDS011;13064;48.162;11.536;2023-02-01T03:40:36;4.72;;;3.88;;
25069;SDS011;13064;48.162;11.536;2023-02-01T03:43:06;8.02;;;3.97;;
25069;SDS011;13064;48.162;11.536;2023-02-01T03:45:36;5.90;;;3.78;;
25069;SDS011;13064;48.162;11.536;2023-02-01T03:48:07;7.53;;;4.13;;
25069;SDS011;13064;48.162;11.536;2023-02-01T03:50:36;6.35;;;3.42;;
25069;SDS011;13064;48.162;11.536;2023-02-01T03:53:07;7.35;;;4.22;;
25069;SDS011;13064;48.162;11.536;2023-02-01T03:55:35;4.97;;;3.63;;
25069;SDS011;13064;48.162;11.536;2023-02-01T03:58:06;6.22;;;4.20;;
25069;SDS011;13064;48.162;11.536;2023-02-01T04:00:34;5.68;;;3.92;;
25069;SDS011;13064;48.162;11.536;2023-02-01T04:03:03;5.63;;;4.18;;
25069;SDS011;13064;48.162;11.536;2023-02-01T04:05:31;5.95;;;3.78;;
25069;SDS011;13064;48.162;11.536;2023-02-01T04:08:02;4.88;;;3.53;;
25069;SDS011;13064;48.162;11.536;2023-02-01T04:10:31;7.32;;;4.10;;
25069;SDS011;13064;48.162;11.536;2023-02-01T04:12:59;5.80;;;3.63;;
25069;SDS011;13064;48.162;11.536;2023-02-01T04:15:26;5.35;;;3.50;;
25069;SDS011;13064;48.162;11.536;2023-02-01T04:17:54;7.80;;;3.75;;
25069;SDS011;13064;48.162;11.536;2023-02-01T04:20:22;9.13;;;3.88;;
25069;SDS011;13064;48.162;11.536;2023-02-01T04:22:50;4.28;;;3.30;;
25069;SDS011;13064;48.162;11.536;2023-02-01T04:25:17;5.53;;;3.92;;
25069;SDS011;13064;48.162;11.536;2023-02-01T04:27:46;7.30;;;4.30;;
25069;SDS011;13064;48.162;11.536;2023-02-01T04:30:13;6.70;;;4.20;;
25069;SDS011;13064;48.162;11.536;2023-02-01T04:32:41;6.68;;;4.07;;
25069;SDS011;13064;48.162;11.536;2023-02-01T04:35:09;6.20;;;4.10;;
25069;SDS011;13064;48.162;11.536;2023-02-01T04:37:38;6.05;;;3.72;;
25069;SDS011;13064;48.162;11.536;2023-02-01T04:40:05;6.30;;;3.88;;
25069;SDS011;13064;48.162;11.536;2023-02-01T04:42:33;7.10;;;4.03;;
25069;SDS011;13064;48.162;11.536;2023-02-01T04:45:01;6.82;;;4.18;;
25069;SDS011;13064;48.162;11.536;2023-02-01T04:47:29;6.30;;;4.13;;
25069;SDS011;13064;48.162;11.536;2023-02-01T04:49:56;5.43;;;4.03;;
25069;SDS011;13064;48.162;11.536;2023-02-01T04:52:24;5.00;;;3.50;;
25069;SDS011;13064;48.162;11.536;2023-02-01T04:54:51;5.18;;;4.20;;
25069;SDS011;13064;48.162;11.536;2023-02-01T04:57:22;7.10;;;4.32;;
25069;SDS011;13064;48.162;11.536;2023-02-01T04:59:50;6.82;;;4.03;;
25069;SDS011;13064;48.162;11.536;2023-02-01T05:02:18;6.63;;;4.78;;
25069;SDS011;13064;48.162;11.536;2023-02-01T05:04:45;6.10;;;4.32;;
25069;SDS011;13064;48.162;11.536;2023-02-01T05:07:13;7.32;;;4.10;;
25069;SDS011;13064;48.162;11.536;2023-02-01T05:09:40;8.35;;;4.45;;
25069;SDS011;13064;48.162;11.536;2023-02-01T05:12:09;7.78;;;4.00;;
25069;SDS011;13064;48.162;11.536;2023-02-01T05:14:55;6.55;;;3.80;;
25069;SDS011;13064;48.162;11.536;2023-02-01T05:17:23;6.15;;;4.30;;
25069;SDS011;13064;48.162;11.536;2023-02-01T05:19:51;5.38;;;3.90;;
25069;SDS011;13064;48.162;11.536;2023-02-01T05:22:18;6.63;;;4.40;;
25069;SDS011;13064;48.162;11.536;2023-02-01T05:24:46;6.80;;;4.55;;
25069;SDS011;13064;48.162;11.536;2023-02-01T05:27:14;8.18;;;4.72;;
25069;SDS011;13064;48.162;11.536;2023-02-01T05:29:41;4.82;;;4.00;;
25069;SDS011;13064;48.162;11.536;2023-02-01T05:32:09;7.25;;;4.50;;
25069;SDS011;13064;48.162;11.536;2023-02-01T05:34:48;8.10;;;4.30;;
25069;SDS011;13064;48.162;11.536;2023-02-01T05:37:16;5.68;;;4.30;;
25069;SDS011;13064;48.162;11.536;2023-02-01T05:39:43;6.90;;;4.72;;
25069;SDS011;13064;48.162;11.536;2023-02-01T05:42:11;5.95;;;4.00;;
25069;SDS011;13064;48.162;11.536;2023-02-01T05:44:39;6.07;;;3.78;;
25069;SDS011;13064;48.162;11.536;2023-02-01T05:47:06;6.38;;;4.32;;
25069;SDS011;13064;48.162;11.536;2023-02-01T05:49:34;8.23;;;4.38;;
25069;SDS011;13064;48.162;11.536;2023-02-01T05:52:01;6.93;;;4.55;;
25069;SDS011;13064;48.162;11.536;2023-02-01T05:54:29;6.90;;;4.55;;
25069;SDS011;13064;48.162;11.536;2023-02-01T05:56:57;5.90;;;4.38;;
25069;SDS011;13064;48.162;11.536;2023-02-01T05:59:24;6.55;;;4.80;;
25069;SDS011;13064;48.162;11.536;2023-02-01T06:01:52;7.80;;;4.72;;
25069;SDS011;13064;48.162;11.536;2023-02-01T06:04:19;7.53;;;4.60;;
25069;SDS011;13064;48.162;11.536;2023-02-01T06:06:47;7.60;;;4.50;;
25069;SDS011;13064;48.162;11.536;2023-02-01T06:09:16;5.32;;;3.50;;
25069;SDS011;13064;48.162;11.536;2023-02-01T06:11:44;9.38;;;4.68;;
25069;SDS011;13064;48.162;11.536;2023-02-01T06:14:12;7.70;;;4.70;;
25069;SDS011;13064;48.162;11.536;2023-02-01T06:16:39;7.35;;;4.30;;
25069;SDS011;13064;48.162;11.536;2023-02-01T06:19:07;7.95;;;3.97;;
25069;SDS011;13064;48.162;11.536;2023-02-01T06:21:35;6.40;;;4.53;;
25069;SDS011;13064;48.162;11.536;2023-02-01T06:24:03;7.20;;;4.18;;
25069;SDS011;13064;48.162;11.536;2023-02-01T06:26:31;5.47;;;4.00;;
25069;SDS011;13064;48.162;11.536;2023-02-01T06:28:59;6.47;;;4.45;;
25069;SDS011;13064;48.162;11.536;2023-02-01T06:31:27;9.13;;;4.05;;
25069;SDS011;13064;48.162;11.536;2023-02-01T06:33:55;6.25;;;4.63;;
25069;SDS011;13064;48.162;11.536;2023-02-01T06:36:22;6.00;;;4.50;;
25069;SDS011;13064;48.162;11.536;2023-02-01T06:38:50;6.18;;;4.35;;
25069;SDS011;13064;48.162;11.536;2023-02-01T06:41:17;7.82;;;4.47;;
25069;SDS011;13064;48.162;11.536;2023-02-01T06:43:47;6.50;;;4.07;;
25069;SDS011;13064;48.162;11.536;2023-02-01T06:46:14;6.95;;;4.80;;
25069;SDS011;13064;48.162;11.536;2023-02-01T06:48:42;8.77;;;4.72;;
25069;SDS011;13064;48.162;11.536;2023-02-01T06:51:18;6.28;;;4.15;;
25069;SDS011;13064;48.162;11.536;2023-02-01T06:53:46;7.68;;;3.90;;
25069;SDS011;13064;48.162;11.536;2023-02-01T06:56:13;8.73;;;4.50;;
25069;SDS011;13064;48.162;11.536;2023-02-01T06:58:41;7.38;;;4.57;;
25069;SDS011;13064;48.162;11.536;2023-02-01T07:01:09;6.38;;;4.28;;
25069;SDS011;13064;48.162;11.536;2023-02-01T07:03:37;6.40;;;4.43;;
25069;SDS011;13064;48.162;11.536;2023-02-01T07:06:05;6.45;;;3.67;;
25069;SDS011;13064;48.162;11.536;2023-02-01T07:08:34;7.05;;;4.63;;
25069;SDS011;13064;48.162;11.536;2023-02-01T07:11:03;5.57;;;4.45;;
25069;SDS011;13064;48.162;11.536;2023-02-01T07:13:31;5.97;;;4.25;;
25069;SDS011;13064;48.162;11.536;2023-02-01T07:15:59;7.15;;;4.45;;
25069;SDS011;13064;48.162;11.536;2023-02-01T07:18:27;6.30;;;4.05;;
25069;SDS011;13064;48.162;11.536;2023-02-01T07:20:55;5.35;;;3.45;;
25069;SDS011;13064;48.162;11.536;2023-02-01T07:23:23;6.30;;;3.60;;
25069;SDS011;13064;48.162;11.536;2023-02-01T07:25:58;5.38;;;3.85;;
25069;SDS011;13064;48.162;11.536;2023-02-01T07:28:27;6.47;;;3.42;;
25069;SDS011;13064;48.162;11.536;2023-02-01T07:31:01;5.15;;;3.15;;
25069;SDS011;13064;48.162;11.536;2023-02-01T07:33:29;5.80;;;3.00;;
25069;SDS011;13064;48.162;11.536;2023-02-01T07:35:56;6.18;;;3.80;;
25069;SDS011;13064;48.162;11.536;2023-02-01T07:38:24;5.82;;;3.38;;
25069;SDS011;13064;48.162;11.536;2023-02-01T07:40:56;4.07;;;2.92;;
25069;SDS011;13064;48.162;11.536;2023-02-01T07:43:23;5.63;;;3.00;;
25069;SDS011;13064;48.162;11.536;2023-02-01T07:45:51;3.97;;;2.58;;
25069;SDS011;13064;48.162;11.536;2023-02-01T07:48:20;4.65;;;2.85;;
25069;SDS011;13064;48.162;11.536;2023-02-01T07:50:48;4.30;;;2.72;;
25069;SDS011;13064;48.162;11.536;2023-02-01T07:53:16;5.47;;;3.17;;
25069;SDS011;13064;48.162;11.536;2023-02-01T07:55:43;4.13;;;2.63;;
25069;SDS011;13064;48.162;11.536;2023-02-01T07:58:11;4.70;;;2.97;;
25069;SDS011;13064;48.162;11.536;2023-02-01T08:00:38;5.65;;;2.83;;
25069;SDS011;13064;48.162;11.536;2023-02-01T08:03:25;4.05;;;2.60;;
25069;SDS011;13064;48.162;11.536;2023-02-01T08:05:55;5.18;;;2.70;;
25069;SDS011;13064;48.162;11.536;2023-02-01T08:08:23;6.45;;;2.83;;
25069;SDS011;13064;48.162;11.536;2023-02-01T08:10:50;4.75;;;2.78;;
25069;SDS011;13064;48.162;11.536;2023-02-01T08:13:24;4.55;;;2.70;;
25069;SDS011;13064;48.162;11.536;2023-02-01T08:15:52;3.88;;;2.42;;
25069;SDS011;13064;48.162;11.536;2023-02-01T08:18:24;3.83;;;2.38;;
25069;SDS011;13064;48.162;11.536;2023-02-01T08:20:52;6.78;;;2.75;;
25069;SDS011;13064;48.162;11.536;2023-02-01T08:23:20;2.92;;;2.38;;
25069;SDS011;13064;48.162;11.536;2023-02-01T08:25:48;3.53;;;2.33;;
25069;SDS011;13064;48.162;11.536;2023-02-01T08:28:16;4.85;;;2.67;;
25069;SDS011;13064;48.162;11.536;2023-02-01T08:30:43;2.88;;;2.20;;
25069;SDS011;13064;48.162;11.536;2023-02-01T08:33:11;6.07;;;2.63;;
25069;SDS011;13064;48.162;11.536;2023-02-01T08:35:40;4.43;;;2.30;;
25069;SDS011;13064;48.162;11.536;2023-02-01T08:38:10;3.55;;;2.40;;
25069;SDS011;13064;48.162;11.536;2023-02-01T08:40:37;6.15;;;2.42;;
25069;SDS011;13064;48.162;11.536;2023-02-01T08:43:05;4.07;;;2.47;;
25069;SDS011;13064;48.162;11.536;2023-02-01T08:45:32;4.85;;;2.40;;
25069;SDS011;13064;48.162;11.536;2023-02-01T08:48:00;4.10;;;2.63;;
25069;SDS011;13064;48.162;11.536;2023-02-01T08:50:28;3.10;;;2.17;;
25069;SDS011;13064;48.162;11.536;2023-02-01T08:52:55;4.10;;;2.35;;
25069;SDS011;13064;48.162;11.536;2023-02-01T08:55:23;3.35;;;2.50;;
25069;SDS011;13064;48.162;11.536;2023-02-01T08:57:51;3.42;;;2.50;;
25069;SDS011;13064;48.162;11.536;2023-02-01T09:00:18;4.55;;;2.70;;
25069;SDS011;13064;48.162;11.536;2023-02-01T09:02:46;4.22;;;2.63;;
25069;SDS011;13064;48.162;11.536;2023-02-01T09:05:13;6.53;;;2.47;;
25069;SDS011;13064;48.162;11.536;2023-02-01T09:07:42;5.32;;;2.42;;
25069;SDS011;13064;48.162;11.536;2023-02-01T09:10:10;3.78;;;2.28;;
25069;SDS011;13064;48.162;11.536;2023-02-01T09:12:39;4.82;;;2.15;;
25069;SDS011;13064;48.162;11.536;2023-02-01T09:15:07;2.97;;;2.35;;
25069;SDS011;13064;48.162;11.536;2023-02-01T09:17:35;3.92;;;2.28;;
25069;SDS011;13064;48.162;11.536;2023-02-01T09:20:03;7.05;;;2.45;;
25069;SDS011;13064;48.162;11.536;2023-02-01T09:22:31;4.20;;;2.10;;
25069;SDS011;13064;48.162;11.536;2023-02-01T09:24:58;4.55;;;2.25;;
25069;SDS011;13064;48.162;11.536;2023-02-01T09:27:27;6.05;;;2.17;;
25069;SDS011;13064;48.162;11.536;2023-02-01T09:29:55;4.53;;;2.25;;
25069;SDS011;13064;48.162;11.536;2023-02-01T09:32:23;4.35;;;2.20;;
25069;SDS011;13064;48.162;11.536;2023-02-01T09:34:52;3.78;;;2.35;;
25069;SDS011;13064;48.162;11.536;2023-02-01T09:37:20;3.10;;;2.33;;
25069;SDS011;13064;48.162;11.536;2023-02-01T09:39:48;5.53;;;2.50;;
25069;SDS011;13064;48.162;11.536;2023-02-01T09:45:14;3.20;;;2.28;;
25069;SDS011;13064;48.162;11.536;2023-02-01T09:47:48;3.17;;;2.10;;
25069;SDS011;13064;48.162;11.536;2023-02-01T09:50:20;3.78;;;2.05;;
25069;SDS011;13064;48.162;11.536;2023-02-01T09:53:33;8.27;;;2.50;;
25069;SDS011;13064;48.162;11.536;2023-02-01T09:55:43;2.85;;;2.22;;
25069;SDS011;13064;48.162;11.536;2023-02-01T09:58:16;2.90;;;1.85;;
25069;SDS011;13064;48.162;11.536;2023-02-01T10:00:53;4.32;;;2.15;;
25069;SDS011;13064;48.162;11.536;2023-02-01T10:03:21;4.22;;;2.08;;
25069;SDS011;13064;48.162;11.536;2023-02-01T10:09:20;2.88;;;1.95;;
25069;SDS011;13064;48.162;11.536;2023-02-01T10:11:30;3.58;;;2.53;;
25069;SDS011;13064;48.162;11.536;2023-02-01T10:17:03;4.63;;;2.50;;
25069;SDS011;13064;48.162;11.536;2023-02-01T10:25:24;3.53;;;2.50;;
25069;SDS011;13064;48.162;11.536;2023-02-01T10:27:53;4.15;;;2.58;;
25069;SDS011;13064;48.162;11.536;2023-02-01T10:30:22;2.90;;;2.20;;
25069;SDS011;13064;48.162;11.536;2023-02-01T10:32:57;4.20;;;2.35;;
25069;SDS011;13064;48.162;11.536;2023-02-01T10:35:29;3.83;;;2.42;;
25069;SDS011;13064;48.162;11.536;2023-02-01T10:38:00;3.83;;;2.10;;
25069;SDS011;13064;48.162;11.536;2023-02-01T10:40:30;5.82;;;2.53;;
25069;SDS011;13064;48.162;11.536;2023-02-01T10:42:59;4.32;;;2.28;;
25069;SDS011;13064;48.162;11.536;2023-02-01T10:45:29;4.18;;;2.60;;
25069;SDS011;13064;48.162;11.536;2023-02-01T10:47:58;5.28;;;2.47;;
25069;SDS011;13064;48.162;11.536;2023-02-01T10:50:33;4.50;;;2.42;;
25069;SDS011;13064;48.162;11.536;2023-02-01T10:53:18;5.30;;;2.50;;
25069;SDS011;13064;48.162;11.536;2023-02-01T10:55:53;3.97;;;1.88;;
25069;SDS011;13064;48.162;11.536;2023-02-01T10:58:30;5.53;;;2.80;;
25069;SDS011;13064;48.162;11.536;2023-02-01T11:01:08;3.20;;;2.05;;
25069;SDS011;13064;48.162;11.536;2023-02-01T11:03:53;4.32;;;2.63;;
25069;SDS011;13064;48.162;11.536;2023-02-01T11:08:58;5.15;;;2.40;;
25069;SDS011;13064;48.162;11.536;2023-02-01T11:11:27;3.92;;;2.50;;
25069;SDS011;13064;48.162;11.536;2023-02-01T11:13:59;3.50;;;2.38;;
25069;SDS011;13064;48.162;11.536;2023-02-01T11:16:39;3.92;;;2.38;;
25069;SDS011;13064;48.162;11.536;2023-02-01T11:19:07;3.83;;;2.40;;
25069;SDS011;13064;48.162;11.536;2023-02-01T11:21:41;4.13;;;2.42;;
25069;SDS011;13064;48.162;11.536;2023-02-01T11:24:16;4.72;;;2.58;;
25069;SDS011;13064;48.162;11.536;2023-02-01T11:26:49;4.43;;;2.55;;
25069;SDS011;13064;48.162;11.536;2023-02-01T11:29:17;5.20;;;2.42;;
25069;SDS011;13064;48.162;11.536;2023-02-01T11:31:56;6.43;;;2.80;;
25069;SDS011;13064;48.162;11.536;2023-02-01T11:34:26;4.28;;;2.40;;
25069;SDS011;13064;48.162;11.536;2023-02-01T11:36:56;4.55;;;1.95;;
25069;SDS011;13064;48.162;11.536;2023-02-01T11:39:26;5.60;;;2.75;;
25069;SDS011;13064;48.162;11.536;2023-02-01T11:47:40;4.78;;;2.35;;
25069;SDS011;13064;48.162;11.536;2023-02-01T11:50:16;6.97;;;3.00;;
25069;SDS011;13064;48.162;11.536;2023-02-01T11:52:57;5.47;;;2.88;;
25069;SDS011;13064;48.162;11.536;2023-02-01T11:58:46;6.18;;;2.70;;
25069;SDS011;13064;48.162;11.536;2023-02-01T12:06:30;5.20;;;2.92;;
25069;SDS011;13064;48.162;11.536;2023-02-01T12:14:28;8.88;;;3.30;;
25069;SDS011;13064;48.162;11.536;2023-02-01T12:38:08;7.57;;;3.00;;
25069;SDS011;13064;48.162;11.536;2023-02-01T12:46:08;6.22;;;2.90;;
25069;SDS011;13064;48.162;11.536;2023-02-01T12:48:49;6.82;;;2.70;;
25069;SDS011;13064;48.162;11.536;2023-02-01T12:51:22;4.50;;;2.78;;
25069;SDS011;13064;48.162;11.536;2023-02-01T12:53:59;7.60;;;2.95;;
25069;SDS011;13064;48.162;11.536;2023-02-01T12:56:34;6.90;;;3.10;;
25069;SDS011;13064;48.162;11.536;2023-02-01T12:59:10;11.63;;;2.83;;
25069;SDS011;13064;48.162;11.536;2023-02-01T13:01:44;4.00;;;2.35;;
25069;SDS011;13064;48.162;11.536;2023-02-01T13:06:47;4.65;;;2.58;;
25069;SDS011;13064;48.162;11.536;2023-02-01T13:11:44;5.70;;;1.60;;
25069;SDS011;13064;48.162;11.536;2023-02-01T13:16:51;7.07;;;2.70;;
25069;SDS011;13064;48.162;11.536;2023-02-01T13:19:35;4.55;;;2.38;;
25069;SDS011;13064;48.162;11.536;2023-02-01T13:22:12;6.93;;;2.65;;
25069;SDS011;13064;48.162;11.536;2023-02-01T13:24:42;4.10;;;2.70;;
25069;SDS011;13064;48.162;11.536;2023-02-01T13:27:13;6.18;;;2.53;;
25069;SDS011;13064;48.162;11.536;2023-02-01T13:29:46;6.28;;;2.50;;
25069;SDS011;13064;48.162;11.536;2023-02-01T13:37:42;4.93;;;2.53;;
25069;SDS011;13064;48.162;11.536;2023-02-01T13:43:01;3.17;;;2.53;;
25069;SDS011;13064;48.162;11.536;2023-02-01T13:45:31;5.75;;;3.00;;
25069;SDS011;13064;48.162;11.536;2023-02-01T13:48:01;6.65;;;2.70;;
25069;SDS011;13064;48.162;11.536;2023-02-01T13:50:31;7.57;;;2.92;;
25069;SDS011;13064;48.162;11.536;2023-02-01T13:53:22;7.68;;;3.03;;
25069;SDS011;13064;48.162;11.536;2023-02-01T13:58:22;4.82;;;2.45;;
25069;SDS011;13064;48.162;11.536;2023-02-01T14:03:46;6.32;;;2.67;;
25069;SDS011;13064;48.162;11.536;2023-02-01T14:09:36;6.13;;;2.55;;
25069;SDS011;13064;48.162;11.536;2023-02-01T14:19:22;5.85;;;2.78;;
25069;SDS011;13064;48.162;11.536;2023-02-01T14:21:57;3.33;;;2.22;;
25069;SDS011;13064;48.162;11.536;2023-02-01T14:24:28;3.70;;;2.38;;
25069;SDS011;13064;48.162;11.536;2023-02-01T14:27:01;5.15;;;2.50;;
25069;SDS011;13064;48.162;11.536;2023-02-01T14:34:36;4.13;;;2.28;;
25069;SDS011;13064;48.162;11.536;2023-02-01T14:40:01;3.90;;;2.22;;
25069;SDS011;13064;48.162;11.536;2023-02-01T14:47:50;3.70;;;2.10;;
25069;SDS011;13064;48.162;11.536;2023-02-01T14:50:21;4.75;;;2.13;;
25069;SDS011;13064;48.162;11.536;2023-02-01T14:55:19;7.60;;;1.92;;
25069;SDS011;13064;48.162;11.536;2023-02-01T14:57:48;6.77;;;2.10;;
25069;SDS011;13064;48.162;11.536;2023-02-01T15:00:22;5.00;;;1.80;;
25069;SDS011;13064;48.162;11.536;2023-02-01T15:02:51;4.10;;;2.13;;
25069;SDS011;13064;48.162;11.536;2023-02-01T15:05:29;5.15;;;1.98;;
25069;SDS011;13064;48.162;11.536;2023-02-01T15:08:11;3.45;;;2.05;;
25069;SDS011;13064;48.162;11.536;2023-02-01T15:10:42;5.18;;;1.95;;
25069;SDS011;13064;48.162;11.536;2023-02-01T15:13:24;5.50;;;1.83;;
25069;SDS011;13064;48.162;11.536;2023-02-01T15:16:02;4.22;;;2.55;;
25069;SDS011;13064;48.162;11.536;2023-02-01T15:18:30;5.65;;;2.28;;
25069;SDS011;13064;48.162;11.536;2023-02-01T15:20:59;4.90;;;2.00;;
25069;SDS011;13064;48.162;11.536;2023-02-01T15:23:35;4.07;;;2.03;;
25069;SDS011;13064;48.162;11.536;2023-02-01T15:26:04;3.97;;;1.92;;
25069;SDS011;13064;48.162;11.536;2023-02-01T15:28:31;6.80;;;2.10;;
25069;SDS011;13064;48.162;11.536;2023-02-01T15:31:00;5.25;;;2.58;;
25069;SDS011;13064;48.162;11.536;2023-02-01T15:33:29;6.70;;;2.03;;
25069;SDS011;13064;48.162;11.536;2023-02-01T15:38:39;6.07;;;2.47;;
25069;SDS011;13064;48.162;11.536;2023-02-01T15:41:17;5.75;;;2.47;;
25069;SDS011;13064;48.162;11.536;2023-02-01T15:46:32;6.10;;;2.70;;
25069;SDS011;13064;48.162;11.536;2023-02-01T15:49:02;6.05;;;2.33;;
25069;SDS011;13064;48.162;11.536;2023-02-01T15:51:30;4.32;;;2.05;;
25069;SDS011;13064;48.162;11.536;2023-02-01T15:54:00;5.90;;;1.73;;
25069;SDS011;13064;48.162;11.536;2023-02-01T15:56:29;7.72;;;2.70;;
25069;SDS011;13064;48.162;11.536;2023-02-01T15:59:01;7.43;;;2.57;;
25069;SDS011;13064;48.162;11.536;2023-02-01T16:01:29;5.13;;;2.20;;
25069;SDS011;13064;48.162;11.536;2023-02-01T16:04:30;5.22;;;2.20;;
25069;SDS011;13064;48.162;11.536;2023-02-01T16:06:52;10.52;;;2.38;;
25069;SDS011;13064;48.162;11.536;2023-02-01T16:09:24;3.13;;;2.15;;
25069;SDS011;13064;48.162;11.536;2023-02-01T16:11:55;4.63;;;1.80;;
25069;SDS011;13064;48.162;11.536;2023-02-01T16:14:23;5.85;;;2.15;;
25069;SDS011;13064;48.162;11.536;2023-02-01T16:16:52;4.03;;;1.98;;
25069;SDS011;13064;48.162;11.536;2023-02-01T16:19:20;6.40;;;2.28;;
25069;SDS011;13064;48.162;11.536;2023-02-01T16:21:50;3.45;;;1.65;;
25069;SDS011;13064;48.162;11.536;2023-02-01T16:24:18;4.63;;;1.80;;
25069;SDS011;13064;48.162;11.536;2023-02-01T16:26:45;10.75;;;2.05;;
25069;SDS011;13064;48.162;11.536;2023-02-01T16:29:13;5.65;;;1.70;;
25069;SDS011;13064;48.162;11.536;2023-02-01T16:31:41;6.40;;;2.53;;
25069;SDS011;13064;48.162;11.536;2023-02-01T16:34:16;5.72;;;1.88;;
25069;SDS011;13064;48.162;11.536;2023-02-01T16:36:44;5.53;;;1.73;;
25069;SDS011;13064;48.162;11.536;2023-02-01T16:39:18;7.18;;;2.00;;
25069;SDS011;13064;48.162;11.536;2023-02-01T16:41:46;5.63;;;1.70;;
25069;SDS011;13064;48.162;11.536;2023-02-01T16:44:14;6.20;;;1.90;;
25069;SDS011;13064;48.162;11.536;2023-02-01T16:46:42;5.90;;;2.00;;
25069;SDS011;13064;48.162;11.536;2023-02-01T16:49:19;6.20;;;2.10;;
25069;SDS011;13064;48.162;11.536;2023-02-01T16:51:47;5.97;;;2.20;;
25069;SDS011;13064;48.162;11.536;2023-02-01T16:54:15;5.70;;;2.40;;
25069;SDS011;13064;48.162;11.536;2023-02-01T16:56:43;9.90;;;2.17;;
25069;SDS011;13064;48.162;11.536;2023-02-01T16:59:11;6.07;;;2.35;;
25069;SDS011;13064;48.162;11.536;2023-02-01T17:01:40;10.55;;;2.13;;
25069;SDS011;13064;48.162;11.536;2023-02-01T17:04:09;7.15;;;2.58;;
25069;SDS011;13064;48.162;11.536;2023-02-01T17:06:37;4.38;;;2.13;;
25069;SDS011;13064;48.162;11.536;2023-02-01T17:09:06;6.82;;;2.00;;
25069;SDS011;13064;48.162;11.536;2023-02-01T17:11:33;8.73;;;3.05;;
25069;SDS011;13064;48.162;11.536;2023-02-01T17:14:20;10.52;;;3.50;;